Time,TemperatureF,DewpointF,PressureIn,WindDirection,WindDirectionDegrees,WindSpeedMPH,WindSpeedGustMPH,Humidity,HourlyPrecipIn,Conditions,Clouds,dailyrainin,SolarRadiationWatts/m^2,SoftwareType,DateUTC
2013-08-03 00:01:00,70.0,67.0,-100.00,West,262,1.0,5.0,91,0.00,,,0.16,0.000000,,2013-08-03 04:01:00,
2013-08-03 00:33:00,70.0,67.0,-100.00,West,262,1.0,5.0,91,0.00,,,0.16,0.000000,,2013-08-03 04:33:00,
2013-08-03 00:43:00,70.0,67.0,-100.00,West,262,1.0,5.0,91,0.00,,,0.16,0.000000,,2013-08-03 04:43:00,
2013-08-03 00:53:00,70.0,67.0,-100.00,West,262,1.0,5.0,91,0.00,,,0.16,0.000000,,2013-08-03 04:53:00,
2013-08-03 01:01:00,69.0,68.0,-100.00,NW,304,0.0,4.0,95,0.00,,,0.15,0.000000,,2013-08-03 05:01:00,
2013-08-03 01:32:00,69.0,68.0,-100.00,NW,304,0.0,4.0,95,0.00,,,0.15,0.000000,,2013-08-03 05:32:00,
2013-08-03 01:42:00,69.0,68.0,-100.00,NW,304,0.0,4.0,95,0.00,,,0.15,0.000000,,2013-08-03 05:42:00,
2013-08-03 01:53:00,69.0,68.0,-100.00,NW,304,0.0,4.0,95,0.00,,,0.15,0.000000,,2013-08-03 05:53:00,
2013-08-03 02:01:00,69.0,68.0,-100.00,West,268,0.0,3.0,96,0.00,,,0.02,0.000000,,2013-08-03 06:01:00,
2013-08-03 02:33:00,69.0,68.0,-100.00,West,268,0.0,3.0,96,0.00,,,0.02,0.000000,,2013-08-03 06:33:00,
2013-08-03 02:42:00,69.0,68.0,-100.00,West,268,0.0,3.0,96,0.00,,,0.02,0.000000,,2013-08-03 06:42:00,
2013-08-03 02:52:00,69.0,68.0,-100.00,West,268,0.0,3.0,96,0.00,,,0.02,0.000000,,2013-08-03 06:52:00,
2013-08-03 03:01:00,67.0,66.0,-100.00,NW,305,0.0,1.0,96,0.00,,,0.02,0.000000,,2013-08-03 07:01:00,
2013-08-03 03:22:00,67.0,66.0,-100.00,NW,305,0.0,1.0,96,0.00,,,0.02,0.000000,,2013-08-03 07:22:00,
2013-08-03 03:32:00,67.0,66.0,-100.00,NW,305,0.0,1.0,96,0.00,,,0.02,0.000000,,2013-08-03 07:32:00,
2013-08-03 03:43:00,67.0,66.0,-100.00,NW,305,0.0,1.0,96,0.00,,,0.02,0.000000,,2013-08-03 07:43:00,
2013-08-03 03:53:00,67.0,66.0,-100.00,NW,305,0.0,1.0,96,0.00,,,0.02,0.000000,,2013-08-03 07:53:00,
2013-08-03 04:01:00,65.0,64.0,-100.00,NW,308,0.0,3.0,96,0.00,,,0.01,0.000000,,2013-08-03 08:01:00,
2013-08-03 04:22:00,65.0,64.0,-100.00,NW,308,0.0,3.0,96,0.00,,,0.01,0.000000,,2013-08-03 08:22:00,
2013-08-03 04:32:00,65.0,64.0,-100.00,NW,308,0.0,3.0,96,0.00,,,0.01,0.000000,,2013-08-03 08:32:00,
2013-08-03 04:43:00,65.0,64.0,-100.00,NW,308,0.0,3.0,96,0.00,,,0.01,0.000000,,2013-08-03 08:43:00,
2013-08-03 04:52:00,65.0,64.0,-100.00,NW,308,0.0,3.0,96,0.00,,,0.01,0.000000,,2013-08-03 08:52:00,
2013-08-03 05:01:00,65.0,63.0,-100.00,WNW,296,0.0,3.0,92,0.00,,,0.01,0.000000,,2013-08-03 09:01:00,
2013-08-03 05:22:00,65.0,63.0,-100.00,WNW,296,0.0,3.0,92,0.00,,,0.01,0.000000,,2013-08-03 09:22:00,
2013-08-03 05:32:00,65.0,63.0,-100.00,WNW,296,0.0,3.0,92,0.00,,,0.01,0.000000,,2013-08-03 09:32:00,
2013-08-03 05:43:00,65.0,63.0,-100.00,WNW,296,0.0,3.0,92,0.00,,,0.01,0.000000,,2013-08-03 09:43:00,
2013-08-03 05:53:00,65.0,63.0,-100.00,WNW,296,0.0,3.0,92,0.00,,,0.01,0.000000,,2013-08-03 09:53:00,
2013-08-03 06:01:00,65.0,63.0,-100.00,West,259,0.0,2.0,94,0.00,,,0.00,0.000000,,2013-08-03 10:01:00,
2013-08-03 06:22:00,65.0,63.0,-100.00,West,259,0.0,2.0,94,0.00,,,0.00,0.000000,,2013-08-03 10:22:00,
2013-08-03 06:33:00,65.0,63.0,-100.00,West,259,0.0,2.0,94,0.00,,,0.00,0.000000,,2013-08-03 10:33:00,
2013-08-03 06:43:00,65.0,63.0,-100.00,West,259,0.0,2.0,94,0.00,,,0.00,0.000000,,2013-08-03 10:43:00,
2013-08-03 06:53:00,65.0,63.0,-100.00,West,259,0.0,2.0,94,0.00,,,0.00,0.000000,,2013-08-03 10:53:00,
2013-08-03 07:01:00,67.0,65.0,-100.00,WNW,294,0.0,3.0,93,0.00,,,0.00,11.000000,,2013-08-03 11:01:00,
2013-08-03 07:23:00,67.0,65.0,-100.00,WNW,294,0.0,3.0,93,0.00,,,0.00,11.000000,,2013-08-03 11:23:00,
2013-08-03 07:32:00,67.0,65.0,-100.00,WNW,294,0.0,3.0,93,0.00,,,0.00,11.000000,,2013-08-03 11:32:00,
2013-08-03 07:43:00,67.0,65.0,-100.00,WNW,294,0.0,3.0,93,0.00,,,0.00,11.000000,,2013-08-03 11:43:00,
2013-08-03 07:53:00,67.0,65.0,-100.00,WNW,294,0.0,3.0,93,0.00,,,0.00,11.000000,,2013-08-03 11:53:00,
2013-08-03 08:01:00,69.0,66.0,-100.00,WNW,296,0.0,3.0,89,0.00,,,0.00,26.000000,,2013-08-03 12:01:00,
2013-08-03 08:33:00,69.0,66.0,-100.00,WNW,296,0.0,3.0,89,0.00,,,0.00,26.000000,,2013-08-03 12:33:00,
2013-08-03 08:43:00,69.0,66.0,-100.00,WNW,296,0.0,3.0,89,0.00,,,0.00,26.000000,,2013-08-03 12:43:00,
2013-08-03 08:53:00,69.0,66.0,-100.00,WNW,296,0.0,3.0,89,0.00,,,0.00,26.000000,,2013-08-03 12:53:00,
2013-08-03 09:01:00,70.0,65.0,-100.00,WNW,286,0.0,3.0,85,0.00,,,0.00,32.000000,,2013-08-03 13:01:00,
2013-08-03 09:33:00,70.0,65.0,-100.00,WNW,286,0.0,3.0,85,0.00,,,0.00,32.000000,,2013-08-03 13:33:00,
2013-08-03 09:43:00,70.0,65.0,-100.00,WNW,286,0.0,3.0,85,0.00,,,0.00,32.000000,,2013-08-03 13:43:00,
2013-08-03 09:52:00,70.0,65.0,-100.00,WNW,286,0.0,3.0,85,0.00,,,0.00,32.000000,,2013-08-03 13:52:00,
2013-08-03 10:01:00,69.0,65.0,-100.00,NW,315,0.0,5.0,86,0.00,,,0.00,42.000000,,2013-08-03 14:01:00,
2013-08-03 10:33:00,69.0,65.0,-100.00,NW,315,0.0,5.0,86,0.00,,,0.00,42.000000,,2013-08-03 14:33:00,
2013-08-03 10:43:00,69.0,65.0,-100.00,NW,315,0.0,5.0,86,0.00,,,0.00,42.000000,,2013-08-03 14:43:00,
2013-08-03 10:52:00,69.0,65.0,-100.00,NW,315,0.0,5.0,86,0.00,,,0.00,42.000000,,2013-08-03 14:52:00,
2013-08-03 11:01:00,69.0,66.0,-100.00,WNW,286,0.0,5.0,89,0.01,,,0.01,43.000000,,2013-08-03 15:01:00,
2013-08-03 11:32:00,69.0,66.0,-100.00,WNW,286,0.0,5.0,89,0.01,,,0.01,43.000000,,2013-08-03 15:32:00,
2013-08-03 11:43:00,69.0,66.0,-100.00,WNW,286,0.0,5.0,89,0.01,,,0.01,43.000000,,2013-08-03 15:43:00,
2013-08-03 11:53:00,69.0,66.0,-100.00,WNW,286,0.0,5.0,89,0.01,,,0.01,43.000000,,2013-08-03 15:53:00,
2013-08-03 12:01:00,69.0,65.0,-100.00,West,259,1.0,4.0,88,0.00,,,0.01,52.000000,,2013-08-03 16:01:00,
2013-08-03 12:33:00,69.0,65.0,-100.00,West,259,1.0,4.0,88,0.00,,,0.01,52.000000,,2013-08-03 16:33:00,
2013-08-03 12:43:00,69.0,65.0,-100.00,West,259,1.0,4.0,88,0.00,,,0.01,52.000000,,2013-08-03 16:43:00,
2013-08-03 12:53:00,69.0,65.0,-100.00,West,259,1.0,4.0,88,0.00,,,0.01,52.000000,,2013-08-03 16:53:00,
2013-08-03 13:01:00,70.0,67.0,-100.00,WNW,298,1.0,6.0,89,0.00,,,0.01,66.000000,,2013-08-03 17:01:00,
2013-08-03 13:22:00,70.0,67.0,-100.00,WNW,298,1.0,6.0,89,0.00,,,0.01,66.000000,,2013-08-03 17:22:00,
2013-08-03 13:32:00,70.0,67.0,-100.00,WNW,298,1.0,6.0,89,0.00,,,0.01,66.000000,,2013-08-03 17:32:00,
2013-08-03 13:43:00,70.0,67.0,-100.00,WNW,298,1.0,6.0,89,0.00,,,0.01,66.000000,,2013-08-03 17:43:00,
2013-08-03 13:52:00,70.0,67.0,-100.00,WNW,298,1.0,6.0,89,0.00,,,0.01,66.000000,,2013-08-03 17:52:00,
2013-08-03 14:01:00,71.0,68.0,-100.00,WNW,283,1.0,4.0,89,0.01,,,0.02,82.000000,,2013-08-03 18:01:00,
2013-08-03 14:22:00,71.0,68.0,-100.00,WNW,283,1.0,4.0,89,0.01,,,0.02,82.000000,,2013-08-03 18:22:00,
2013-08-03 14:32:00,71.0,68.0,-100.00,WNW,283,1.0,4.0,89,0.01,,,0.02,82.000000,,2013-08-03 18:32:00,
2013-08-03 14:43:00,71.0,68.0,-100.00,WNW,283,1.0,4.0,89,0.01,,,0.02,82.000000,,2013-08-03 18:43:00,
2013-08-03 14:53:00,71.0,68.0,-100.00,WNW,283,1.0,4.0,89,0.01,,,0.02,82.000000,,2013-08-03 18:53:00,
2013-08-03 15:01:00,74.0,66.0,-100.00,WSW,243,2.0,7.0,77,0.00,,,0.02,168.000000,,2013-08-03 19:01:00,
2013-08-03 15:22:00,74.0,66.0,-100.00,WSW,243,2.0,7.0,77,0.00,,,0.02,168.000000,,2013-08-03 19:22:00,
2013-08-03 15:33:00,74.0,66.0,-100.00,WSW,243,2.0,7.0,77,0.00,,,0.02,168.000000,,2013-08-03 19:33:00,
2013-08-03 15:43:00,74.0,66.0,-100.00,WSW,243,2.0,7.0,77,0.00,,,0.02,168.000000,,2013-08-03 19:43:00,
2013-08-03 15:53:00,74.0,66.0,-100.00,WSW,243,2.0,7.0,77,0.00,,,0.02,168.000000,,2013-08-03 19:53:00,
2013-08-03 16:01:00,77.0,67.0,-100.00,West,272,2.0,7.0,71,0.00,,,0.02,232.000000,,2013-08-03 20:01:00,
2013-08-03 16:32:00,77.0,67.0,-100.00,West,272,2.0,7.0,71,0.00,,,0.02,232.000000,,2013-08-03 20:32:00,
2013-08-03 16:42:00,77.0,67.0,-100.00,West,272,2.0,7.0,71,0.00,,,0.02,232.000000,,2013-08-03 20:42:00,
2013-08-03 16:52:00,77.0,67.0,-100.00,West,272,2.0,7.0,71,0.00,,,0.02,232.000000,,2013-08-03 20:52:00,
2013-08-03 17:01:00,78.0,66.0,-100.00,WSW,243,3.0,7.0,67,0.00,,,-99.99,241.000000,,2013-08-03 21:01:00,
2013-08-03 17:22:00,78.0,66.0,-100.00,WSW,243,3.0,7.0,67,0.00,,,-99.99,241.000000,,2013-08-03 21:22:00,
2013-08-03 17:32:00,78.0,66.0,-100.00,WSW,243,3.0,7.0,67,0.00,,,-99.99,241.000000,,2013-08-03 21:32:00,
2013-08-03 17:42:00,78.0,66.0,-100.00,WSW,243,3.0,7.0,67,0.00,,,-99.99,241.000000,,2013-08-03 21:42:00,
2013-08-03 17:52:00,78.0,66.0,-100.00,WSW,243,3.0,7.0,67,0.00,,,-99.99,241.000000,,2013-08-03 21:52:00,
2013-08-03 18:01:00,74.0,64.0,-100.00,West,262,2.0,8.0,72,0.00,,,0.02,181.000000,,2013-08-03 22:01:00,
2013-08-03 18:22:00,74.0,64.0,-100.00,West,262,2.0,8.0,72,0.00,,,0.02,181.000000,,2013-08-03 22:22:00,
2013-08-03 18:33:00,74.0,64.0,-100.00,West,262,2.0,8.0,72,0.00,,,0.02,181.000000,,2013-08-03 22:33:00,
2013-08-03 18:43:00,74.0,64.0,-100.00,West,262,2.0,8.0,72,0.00,,,0.02,181.000000,,2013-08-03 22:43:00,
2013-08-03 18:52:00,74.0,64.0,-100.00,West,262,2.0,8.0,72,0.00,,,0.02,181.000000,,2013-08-03 22:52:00,
2013-08-03 19:01:00,71.0,64.0,-100.00,WNW,292,1.0,8.0,79,0.00,,,0.02,15.000000,,2013-08-03 23:01:00,
2013-08-03 19:22:00,71.0,64.0,-100.00,WNW,292,1.0,8.0,79,0.00,,,0.02,15.000000,,2013-08-03 23:22:00,
2013-08-03 19:32:00,71.0,64.0,-100.00,WNW,292,1.0,8.0,79,0.00,,,0.02,15.000000,,2013-08-03 23:32:00,
2013-08-03 19:43:00,71.0,64.0,-100.00,WNW,292,1.0,8.0,79,0.00,,,0.02,15.000000,,2013-08-03 23:43:00,
2013-08-03 19:52:00,71.0,64.0,-100.00,WNW,292,1.0,8.0,79,0.00,,,0.02,15.000000,,2013-08-03 23:52:00,
2013-08-03 20:01:00,70.0,65.0,-100.00,West,268,2.0,7.0,85,0.00,,,0.02,13.000000,,2013-08-04 00:01:00,
2013-08-03 20:22:00,70.0,65.0,-100.00,West,268,2.0,7.0,85,0.00,,,0.02,13.000000,,2013-08-04 00:22:00,
2013-08-03 20:32:00,70.0,65.0,-100.00,West,268,2.0,7.0,85,0.00,,,0.02,13.000000,,2013-08-04 00:32:00,
2013-08-03 20:42:00,70.0,65.0,-100.00,West,268,2.0,7.0,85,0.00,,,0.02,13.000000,,2013-08-04 00:42:00,
2013-08-03 20:53:00,70.0,65.0,-100.00,West,268,2.0,7.0,85,0.00,,,0.02,13.000000,,2013-08-04 00:53:00,
2013-08-03 21:01:00,68.0,65.0,-100.00,West,277,1.0,7.0,91,0.00,,,0.02,0.000000,,2013-08-04 01:01:00,
2013-08-03 21:22:00,68.0,65.0,-100.00,West,277,1.0,7.0,91,0.00,,,0.02,0.000000,,2013-08-04 01:22:00,
2013-08-03 21:32:00,68.0,65.0,-100.00,West,277,1.0,7.0,91,0.00,,,0.02,0.000000,,2013-08-04 01:32:00,
2013-08-03 21:42:00,68.0,65.0,-100.00,West,277,1.0,7.0,91,0.00,,,0.02,0.000000,,2013-08-04 01:42:00,
2013-08-03 21:53:00,68.0,65.0,-100.00,West,277,1.0,7.0,91,0.00,,,0.02,0.000000,,2013-08-04 01:53:00,
2013-08-03 22:01:00,68.0,65.0,-100.00,WNW,291,1.0,5.0,91,0.00,,,0.02,0.000000,,2013-08-04 02:01:00,
2013-08-03 22:22:00,68.0,65.0,-100.00,WNW,291,1.0,5.0,91,0.00,,,0.02,0.000000,,2013-08-04 02:22:00,
2013-08-03 22:32:00,68.0,65.0,-100.00,WNW,291,1.0,5.0,91,0.00,,,0.02,0.000000,,2013-08-04 02:32:00,
2013-08-03 22:42:00,68.0,65.0,-100.00,WNW,291,1.0,5.0,91,0.00,,,0.02,0.000000,,2013-08-04 02:42:00,
2013-08-03 22:52:00,68.0,65.0,-100.00,WNW,291,1.0,5.0,91,0.00,,,0.02,0.000000,,2013-08-04 02:52:00,
2013-08-03 23:01:00,69.0,65.0,-100.00,WNW,296,1.0,5.0,87,0.00,,,0.02,0.000000,,2013-08-04 03:01:00,
2013-08-03 23:22:00,69.0,65.0,-100.00,WNW,296,1.0,5.0,87,0.00,,,0.02,0.000000,,2013-08-04 03:22:00,
2013-08-03 23:32:00,69.0,65.0,-100.00,WNW,296,1.0,5.0,87,0.00,,,0.02,0.000000,,2013-08-04 03:32:00,
2013-08-03 23:42:00,69.0,65.0,-100.00,WNW,296,1.0,5.0,87,0.00,,,0.02,0.000000,,2013-08-04 03:42:00,
2013-08-03 23:52:00,69.0,65.0,-100.00,WNW,296,1.0,5.0,87,0.00,,,0.02,0.000000,,2013-08-04 03:52:00,